createdAt,value
2023-05-19T10:59:36.748Z,1.00
2023-05-19T11:02:05.012Z,1.20
2023-05-19T11:04:51.780Z,1.00
2023-05-19T11:07:21.091Z,1.00
2023-05-19T11:09:52.414Z,1.13
2023-05-19T11:12:25.512Z,0.90
2023-05-19T11:14:54.420Z,0.87
2023-05-19T11:17:22.446Z,0.90
2023-05-19T11:19:54.803Z,1.00
2023-05-19T11:22:26.412Z,0.97
2023-05-19T11:24:56.899Z,1.00
2023-05-19T11:27:34.468Z,1.10
2023-05-19T11:30:05.493Z,1.10
2023-05-19T11:32:34.339Z,0.90
2023-05-19T11:35:02.540Z,0.93
2023-05-19T11:37:34.788Z,1.00
2023-05-19T11:40:04.832Z,0.90
2023-05-19T11:42:32.430Z,1.00
2023-05-19T11:44:59.541Z,0.80
2023-05-19T11:47:27.880Z,1.20
2023-05-19T11:49:59.011Z,1.10
2023-05-19T11:52:29.619Z,1.37
2023-05-19T11:55:01.600Z,1.20
2023-05-19T11:57:29.589Z,0.80
2023-05-19T11:59:57.227Z,1.20
2023-05-19T12:02:25.547Z,0.90
2023-05-19T12:05:13.737Z,1.10
2023-05-19T12:08:00.908Z,1.03
2023-05-19T12:10:49.370Z,1.00
2023-05-19T12:13:36.951Z,0.90
2023-05-19T12:16:24.610Z,1.00
2023-05-19T12:19:11.624Z,0.90
2023-05-19T12:21:59.239Z,0.93
2023-05-19T12:24:46.190Z,0.93
2023-05-19T12:27:38.720Z,0.90
2023-05-19T12:30:26.290Z,0.80
2023-05-19T12:33:14.260Z,0.73
2023-05-19T12:36:02.601Z,0.90
2023-05-19T12:38:49.713Z,1.03
2023-05-19T12:41:37.517Z,1.10
2023-05-19T12:44:34.939Z,0.70
2023-05-19T12:47:25.093Z,0.73
2023-05-19T12:50:21.599Z,0.80
2023-05-19T12:53:13.183Z,1.10
2023-05-19T12:56:04.079Z,1.00
2023-05-19T12:58:53.875Z,1.10
2023-05-19T13:01:42.760Z,0.80
2023-05-19T13:04:29.805Z,1.03
2023-05-19T13:07:17.035Z,1.00
2023-05-19T13:10:03.939Z,0.83
2023-05-19T13:12:51.015Z,1.00
2023-05-19T13:15:38.112Z,0.93
2023-05-19T13:18:27.847Z,1.00
2023-05-19T13:21:14.845Z,0.90
2023-05-19T13:24:01.897Z,0.90
2023-05-19T13:26:48.837Z,1.30
2023-05-19T13:29:36.023Z,0.80
2023-05-19T13:32:23.135Z,1.00
2023-05-19T13:35:10.267Z,0.80
2023-05-19T13:37:57.723Z,0.90
2023-05-19T13:40:44.845Z,1.03
2023-05-19T13:43:31.932Z,1.00
2023-05-19T13:46:24.243Z,1.10
2023-05-19T13:49:16.778Z,1.00
2023-05-19T13:52:03.788Z,0.80
2023-05-19T13:54:50.728Z,1.10
2023-05-19T13:57:37.858Z,1.20
2023-05-19T14:00:46.225Z,1.10
2023-05-19T14:03:33.603Z,0.93
2023-05-19T14:06:20.794Z,0.90
2023-05-19T14:09:07.921Z,1.00
2023-05-19T14:11:55.317Z,1.30
2023-05-19T14:14:42.368Z,1.17
2023-05-19T14:17:29.506Z,1.10
2023-05-19T14:20:16.509Z,1.10
2023-05-19T14:23:03.520Z,1.00
2023-05-19T14:25:50.446Z,1.20
2023-05-19T14:28:37.753Z,0.77
2023-05-19T14:31:25.741Z,0.90
2023-05-19T14:34:13.351Z,1.00
2023-05-19T14:37:00.370Z,0.80
2023-05-19T14:39:47.447Z,1.00
2023-05-19T14:42:34.432Z,1.10
2023-05-19T14:45:21.622Z,0.90
2023-05-19T14:48:08.701Z,0.93
2023-05-19T14:50:55.747Z,0.93
2023-05-19T14:53:42.775Z,1.40
2023-05-19T14:56:30.032Z,0.80
2023-05-19T14:59:17.111Z,0.90
2023-05-19T15:02:04.619Z,1.40
2023-05-19T15:04:51.766Z,1.00
2023-05-19T15:07:38.982Z,0.70
2023-05-19T15:10:26.365Z,1.10
2023-05-19T15:13:13.407Z,1.40
2023-05-19T15:16:15.669Z,1.10
2023-05-19T15:19:04.399Z,0.93
2023-05-19T15:21:51.468Z,1.10
2023-05-19T15:24:38.582Z,1.20
2023-05-19T15:27:25.977Z,1.20
2023-05-19T15:30:13.248Z,1.80
2023-05-19T15:33:00.395Z,1.60
2023-05-19T15:35:47.581Z,1.73
2023-05-19T15:38:34.567Z,1.80
2023-05-19T15:41:26.424Z,1.50
2023-05-19T15:44:13.329Z,1.77
2023-05-19T15:47:00.353Z,2.30
2023-05-19T15:49:47.384Z,1.70
2023-05-19T15:52:34.491Z,1.53
2023-05-19T15:55:21.497Z,1.40
2023-05-19T15:58:08.716Z,1.33
2023-05-19T16:00:55.807Z,1.27
2023-05-19T16:03:43.270Z,1.70
2023-05-19T16:06:30.587Z,1.70
2023-05-19T16:09:17.838Z,1.80
2023-05-19T16:12:04.856Z,1.47
2023-05-19T16:14:51.955Z,1.50
2023-05-19T16:17:38.954Z,1.33
2023-05-19T16:20:26.492Z,1.73
2023-05-19T16:23:13.967Z,1.60
2023-05-19T16:26:00.978Z,1.70
2023-05-19T16:28:48.101Z,1.70
2023-05-19T16:31:35.259Z,1.60
2023-05-19T16:34:22.228Z,1.50
2023-05-19T16:37:09.196Z,1.60
2023-05-19T16:39:56.584Z,2.43
2023-05-19T16:42:43.774Z,1.80
2023-05-19T16:45:31.089Z,1.90
2023-05-19T16:48:18.380Z,2.43
2023-05-19T16:51:08.227Z,2.03
2023-05-19T16:53:55.243Z,2.10
2023-05-19T16:56:42.236Z,2.10
2023-05-19T16:59:29.537Z,1.67
2023-05-19T17:02:16.536Z,2.10
2023-05-19T17:05:04.153Z,1.57
2023-05-19T17:07:51.131Z,1.37
2023-05-19T17:10:38.421Z,1.73
2023-05-19T17:13:25.801Z,1.67
2023-05-19T17:16:13.020Z,2.40
2023-05-19T17:19:00.098Z,1.80
2023-05-19T17:21:47.163Z,1.60
2023-05-19T17:24:34.104Z,1.70
2023-05-19T17:27:21.248Z,1.33
2023-05-19T17:30:08.332Z,1.60
2023-05-19T17:32:55.877Z,1.60
2023-05-19T17:35:42.878Z,1.50
2023-05-19T17:38:29.864Z,1.50
2023-05-19T17:41:23.218Z,1.50
2023-05-19T17:44:10.604Z,1.60
2023-05-19T17:46:57.858Z,1.40
2023-05-19T17:49:45.160Z,1.30
2023-05-19T17:52:32.663Z,1.30
2023-05-19T17:55:20.240Z,1.20
2023-05-19T17:58:08.194Z,1.60
2023-05-19T18:00:55.464Z,1.67
2023-05-19T18:03:43.148Z,1.40
2023-05-19T18:06:31.872Z,1.50
2023-05-19T18:09:21.110Z,1.33
2023-05-19T18:12:08.045Z,1.50
2023-05-19T18:14:55.163Z,1.53
2023-05-19T18:17:42.180Z,1.40
2023-05-19T18:20:29.753Z,1.47
2023-05-19T18:23:20.536Z,1.10
2023-05-19T18:26:11.490Z,1.50
2023-05-19T18:28:59.178Z,1.30
2023-05-19T18:31:46.469Z,1.30
2023-05-19T18:34:33.602Z,1.40
2023-05-19T18:37:20.853Z,1.30
2023-05-19T18:40:07.847Z,1.20
2023-05-19T18:42:55.112Z,1.13
2023-05-19T18:45:42.132Z,1.20
2023-05-19T18:48:29.283Z,1.40
2023-05-19T18:51:16.242Z,1.50
2023-05-19T18:54:03.435Z,1.13
2023-05-19T18:56:50.481Z,1.23
2023-05-19T18:59:37.817Z,1.37
2023-05-19T19:02:25.034Z,1.60
2023-05-19T19:05:12.298Z,1.57
2023-05-19T19:08:03.378Z,1.67
2023-05-19T19:10:50.531Z,1.60
2023-05-19T19:13:38.386Z,1.70
2023-05-19T19:16:26.379Z,1.40
2023-05-19T19:19:13.519Z,1.80
2023-05-19T19:22:00.924Z,1.50
2023-05-19T19:24:48.007Z,1.40
2023-05-19T19:27:38.144Z,1.47
2023-05-19T19:30:25.664Z,1.67
2023-05-19T19:33:13.176Z,1.57
2023-05-19T19:36:00.217Z,1.50
2023-05-19T19:38:47.409Z,1.50
2023-05-19T19:41:34.376Z,1.63
2023-05-19T19:44:21.411Z,1.40
2023-05-19T19:47:08.659Z,1.50
2023-05-19T19:49:55.701Z,1.70
2023-05-19T19:52:42.652Z,1.50
2023-05-19T19:55:30.037Z,1.00
2023-05-19T19:58:17.145Z,1.30
2023-05-19T20:01:04.191Z,1.40
2023-05-19T20:03:51.266Z,1.67
2023-05-19T20:06:38.497Z,1.90
2023-05-19T20:09:25.558Z,1.50
2023-05-19T20:12:12.708Z,1.40
2023-05-19T20:14:59.611Z,1.00
2023-05-19T20:17:46.828Z,1.20
2023-05-19T20:20:34.165Z,1.10
2023-05-19T20:23:21.610Z,1.60
2023-05-19T20:26:12.533Z,1.10
2023-05-19T20:28:40.006Z,1.63
2023-05-19T20:31:27.428Z,1.13
2023-05-19T20:34:14.604Z,1.10
2023-05-19T20:37:01.874Z,1.03
2023-05-19T20:39:48.842Z,1.20
2023-05-19T20:42:36.009Z,1.27
2023-05-19T20:45:23.149Z,1.07
2023-05-19T20:48:10.255Z,0.97
2023-05-19T20:50:59.089Z,1.20
2023-05-19T20:53:46.577Z,1.03
2023-05-19T20:56:33.762Z,0.90
2023-05-19T20:59:20.793Z,1.13
2023-05-19T21:02:07.749Z,1.40
2023-05-19T21:04:55.188Z,1.10
2023-05-19T21:07:42.163Z,1.30
2023-05-19T21:10:29.610Z,0.90
2023-05-19T21:13:16.598Z,0.77
2023-05-19T21:16:03.598Z,1.17
2023-05-19T21:18:50.630Z,1.07
2023-05-19T21:21:37.873Z,1.10
2023-05-19T21:24:24.921Z,0.90
2023-05-19T21:27:11.955Z,0.97
2023-05-19T21:29:58.987Z,1.17
2023-05-19T21:32:46.090Z,1.00
2023-05-19T21:35:33.334Z,0.83
2023-05-19T21:38:23.748Z,1.33
2023-05-19T21:41:12.468Z,1.00
2023-05-19T21:43:59.562Z,1.33
2023-05-19T21:47:01.827Z,1.07
2023-05-19T21:49:48.915Z,0.83
2023-05-19T21:52:35.964Z,1.13
2023-05-19T21:55:23.061Z,1.10
2023-05-19T21:58:10.116Z,0.90
2023-05-19T22:00:57.195Z,1.10
2023-05-19T22:03:44.425Z,1.07
2023-05-19T22:06:31.568Z,1.27
2023-05-19T22:09:18.548Z,1.20
2023-05-19T22:12:05.650Z,1.17
2023-05-19T22:14:52.712Z,1.07
2023-05-19T22:17:39.815Z,1.27
2023-05-19T22:20:27.246Z,1.10
2023-05-19T22:23:14.299Z,1.23
2023-05-19T22:25:41.615Z,0.90
2023-05-19T22:28:09.162Z,1.30
2023-05-19T22:30:39.939Z,1.20
2023-05-19T22:33:08.935Z,1.20
2023-05-19T22:35:36.162Z,1.00
2023-05-19T22:38:03.445Z,0.90
2023-05-19T22:40:31.118Z,1.27
2023-05-19T22:42:58.208Z,1.40
2023-05-19T22:45:25.653Z,1.17
2023-05-19T22:47:52.738Z,1.07
2023-05-19T22:50:20.167Z,1.10
2023-05-19T22:52:47.928Z,1.30
2023-05-19T22:55:14.972Z,1.20
2023-05-19T22:57:41.957Z,1.20
2023-05-19T23:00:09.913Z,1.13
2023-05-19T23:02:37.045Z,1.10
2023-05-19T23:05:04.352Z,1.13
2023-05-19T23:07:31.530Z,1.30
2023-05-19T23:09:58.605Z,1.00
2023-05-19T23:12:45.755Z,1.17
2023-05-19T23:15:33.033Z,1.20
2023-05-19T23:18:20.226Z,1.27
2023-05-19T23:21:07.130Z,1.50
2023-05-19T23:23:54.263Z,1.17
2023-05-19T23:26:41.490Z,1.40
2023-05-19T23:29:34.178Z,1.40
2023-05-19T23:32:21.172Z,1.40
2023-05-19T23:35:08.370Z,1.30
2023-05-19T23:37:55.602Z,1.33
2023-05-19T23:40:42.840Z,1.77
2023-05-19T23:43:29.864Z,1.30
2023-05-19T23:46:17.320Z,1.33
2023-05-19T23:49:04.460Z,1.20
2023-05-19T23:51:52.489Z,1.23
2023-05-19T23:54:39.392Z,1.10
2023-05-19T23:57:27.971Z,1.57
